createdAt,value
2023-05-06T00:12:07.545Z,93.6
2023-05-06T00:32:07.557Z,93.8
2023-05-06T00:52:07.548Z,93.7
2023-05-06T01:12:07.549Z,93.9
2023-05-06T01:32:07.551Z,93.8
2023-05-06T01:52:07.550Z,94.1
2023-05-06T02:12:07.449Z,94.1
2023-05-06T02:32:07.448Z,94.1
2023-05-06T02:52:07.448Z,94.2
2023-05-06T03:12:07.438Z,94.1
2023-05-06T03:32:07.433Z,94.2
2023-05-06T03:52:07.437Z,94.2
2023-05-06T04:12:07.438Z,94.2
2023-05-06T04:32:07.331Z,94.2
2023-05-06T04:52:07.336Z,94.3
2023-05-06T05:12:07.317Z,94.3
2023-05-06T05:32:07.323Z,94.3
2023-05-06T05:52:07.321Z,94.2
2023-05-06T06:12:07.347Z,94.1
2023-05-06T06:32:07.311Z,94.0
2023-05-06T06:52:07.204Z,93.9
2023-05-06T07:12:07.213Z,93.9
2023-05-06T07:32:07.219Z,93.8
2023-05-06T07:52:07.221Z,93.8
2023-05-06T08:12:07.208Z,91.8
2023-05-06T08:32:07.106Z,85.8
2023-05-06T08:52:07.104Z,84.0
2023-05-06T09:12:07.117Z,79.3
2023-05-06T09:32:07.126Z,74.7
2023-05-06T09:52:07.125Z,69.2
2023-05-06T10:12:07.026Z,67.0
2023-05-06T10:32:07.037Z,63.0
2023-05-06T10:52:07.033Z,65.0
2023-05-06T11:12:06.953Z,63.6
2023-05-06T11:32:06.966Z,63.7
2023-05-06T11:52:06.944Z,67.7
2023-05-06T12:12:06.856Z,61.5
2023-05-06T12:32:06.858Z,62.1
2023-05-06T12:52:06.878Z,60.2
2023-05-06T13:12:06.801Z,58.1
2023-05-06T13:32:06.801Z,57.7
2023-05-06T13:52:06.710Z,58.0
2023-05-06T14:12:06.715Z,59.9
2023-05-06T14:32:06.733Z,62.4
2023-05-06T14:52:06.648Z,61.2
2023-05-06T15:12:06.648Z,58.5
2023-05-06T15:32:06.589Z,59.0
2023-05-06T15:52:06.613Z,61.3
2023-05-06T16:12:06.519Z,63.6
2023-05-06T16:32:06.546Z,65.4
2023-05-06T16:52:06.571Z,67.9
2023-05-06T17:12:06.491Z,66.0
2023-05-06T17:32:06.623Z,71.4
2023-05-06T17:52:06.605Z,75.9
2023-05-06T18:12:06.699Z,72.8
2023-05-06T18:32:06.526Z,77.8
2023-05-06T18:52:06.582Z,80.1
2023-05-06T19:12:06.572Z,79.8
2023-05-06T19:32:06.459Z,82.6
2023-05-06T19:52:06.488Z,83.0
2023-05-06T20:12:06.496Z,84.7
2023-05-06T20:32:06.393Z,86.2
2023-05-06T20:52:06.430Z,86.6
2023-05-06T21:12:06.329Z,87.1
2023-05-06T21:32:06.408Z,87.8
2023-05-06T21:52:06.383Z,87.9
2023-05-06T22:12:06.321Z,88.9
2023-05-06T22:32:06.341Z,87.9
2023-05-06T22:52:06.351Z,89.1
2023-05-06T23:12:06.308Z,88.4
2023-05-06T23:32:06.096Z,88.7
2023-05-06T23:52:06.107Z,89.3
